sensor_id;sensor_type;location;lat;lon;timestamp;P1;durP1;ratioP1;P2;durP2;ratioP2
5391;SDS011;2719;53.624;9.786;2023-11-21T00:01:43;22.93;;;11.30;;
5391;SDS011;2719;53.624;9.786;2023-11-21T00:04:09;22.90;;;11.07;;
5391;SDS011;2719;53.624;9.786;2023-11-21T00:06:37;26.93;;;13.80;;
5391;SDS011;2719;53.624;9.786;2023-11-21T00:09:05;25.47;;;12.57;;
5391;SDS011;2719;53.624;9.786;2023-11-21T00:11:33;19.80;;;9.70;;
5391;SDS011;2719;53.624;9.786;2023-11-21T00:14:00;19.13;;;10.07;;
5391;SDS011;2719;53.624;9.786;2023-11-21T00:16:27;18.70;;;10.23;;
5391;SDS011;2719;53.624;9.786;2023-11-21T00:18:53;20.40;;;11.90;;
5391;SDS011;2719;53.624;9.786;2023-11-21T00:21:20;16.63;;;9.53;;
5391;SDS011;2719;53.624;9.786;2023-11-21T00:23:48;15.00;;;8.93;;
5391;SDS011;2719;53.624;9.786;2023-11-21T00:26:15;23.33;;;9.90;;
5391;SDS011;2719;53.624;9.786;2023-11-21T00:28:41;20.20;;;9.53;;
5391;SDS011;2719;53.624;9.786;2023-11-21T00:31:08;18.47;;;8.20;;
5391;SDS011;2719;53.624;9.786;2023-11-21T00:33:33;14.53;;;8.37;;
5391;SDS011;2719;53.624;9.786;2023-11-21T00:36:00;21.57;;;9.00;;
5391;SDS011;2719;53.624;9.786;2023-11-21T00:38:27;13.97;;;8.13;;
5391;SDS011;2719;53.624;9.786;2023-11-21T00:40:55;12.77;;;7.27;;
5391;SDS011;2719;53.624;9.786;2023-11-21T00:43:21;15.40;;;8.40;;
5391;SDS011;2719;53.624;9.786;2023-11-21T00:45:48;15.23;;;8.10;;
5391;SDS011;2719;53.624;9.786;2023-11-21T00:48:16;16.50;;;8.47;;
5391;SDS011;2719;53.624;9.786;2023-11-21T00:50:43;14.13;;;8.27;;
5391;SDS011;2719;53.624;9.786;2023-11-21T00:53:10;18.80;;;7.37;;
5391;SDS011;2719;53.624;9.786;2023-11-21T00:55:36;16.23;;;9.00;;
5391;SDS011;2719;53.624;9.786;2023-11-21T00:58:06;13.70;;;7.80;;
5391;SDS011;2719;53.624;9.786;2023-11-21T01:00:32;11.23;;;7.10;;
5391;SDS011;2719;53.624;9.786;2023-11-21T01:02:59;16.30;;;8.20;;
5391;SDS011;2719;53.624;9.786;2023-11-21T01:05:25;15.93;;;8.40;;
5391;SDS011;2719;53.624;9.786;2023-11-21T01:07:53;13.87;;;7.27;;
5391;SDS011;2719;53.624;9.786;2023-11-21T01:10:19;15.70;;;7.90;;
5391;SDS011;2719;53.624;9.786;2023-11-21T01:12:46;16.00;;;7.00;;
5391;SDS011;2719;53.624;9.786;2023-11-21T01:15:15;15.20;;;7.60;;
5391;SDS011;2719;53.624;9.786;2023-11-21T01:17:41;15.90;;;7.50;;
5391;SDS011;2719;53.624;9.786;2023-11-21T01:20:08;18.07;;;8.20;;
5391;SDS011;2719;53.624;9.786;2023-11-21T01:22:37;16.90;;;7.90;;
5391;SDS011;2719;53.624;9.786;2023-11-21T01:25:04;16.23;;;8.97;;
5391;SDS011;2719;53.624;9.786;2023-11-21T01:27:32;16.30;;;8.37;;
5391;SDS011;2719;53.624;9.786;2023-11-21T01:29:59;21.60;;;9.63;;
5391;SDS011;2719;53.624;9.786;2023-11-21T01:32:27;16.77;;;8.87;;
5391;SDS011;2719;53.624;9.786;2023-11-21T01:34:54;16.00;;;9.10;;
5391;SDS011;2719;53.624;9.786;2023-11-21T01:37:21;14.40;;;8.50;;
5391;SDS011;2719;53.624;9.786;2023-11-21T01:39:48;16.27;;;9.30;;
5391;SDS011;2719;53.624;9.786;2023-11-21T01:42:15;14.47;;;7.73;;
5391;SDS011;2719;53.624;9.786;2023-11-21T01:44:42;13.10;;;6.43;;
5391;SDS011;2719;53.624;9.786;2023-11-21T01:47:08;11.50;;;6.70;;
5391;SDS011;2719;53.624;9.786;2023-11-21T01:49:37;12.73;;;6.97;;
5391;SDS011;2719;53.624;9.786;2023-11-21T01:52:04;12.77;;;7.53;;
5391;SDS011;2719;53.624;9.786;2023-11-21T01:54:31;20.17;;;7.37;;
5391;SDS011;2719;53.624;9.786;2023-11-21T01:56:58;12.63;;;6.03;;
5391;SDS011;2719;53.624;9.786;2023-11-21T01:59:27;13.73;;;7.77;;
5391;SDS011;2719;53.624;9.786;2023-11-21T02:01:59;17.13;;;6.93;;
5391;SDS011;2719;53.624;9.786;2023-11-21T02:04:26;14.50;;;6.77;;
5391;SDS011;2719;53.624;9.786;2023-11-21T02:06:54;13.60;;;6.97;;
5391;SDS011;2719;53.624;9.786;2023-11-21T02:09:23;16.33;;;6.47;;
5391;SDS011;2719;53.624;9.786;2023-11-21T02:11:52;15.10;;;7.87;;
5391;SDS011;2719;53.624;9.786;2023-11-21T02:14:19;16.00;;;6.90;;
5391;SDS011;2719;53.624;9.786;2023-11-21T02:16:47;15.00;;;7.60;;
5391;SDS011;2719;53.624;9.786;2023-11-21T02:19:15;15.50;;;7.97;;
5391;SDS011;2719;53.624;9.786;2023-11-21T02:21:45;13.60;;;7.40;;
5391;SDS011;2719;53.624;9.786;2023-11-21T02:24:14;18.57;;;7.60;;
5391;SDS011;2719;53.624;9.786;2023-11-21T02:26:42;14.37;;;7.77;;
5391;SDS011;2719;53.624;9.786;2023-11-21T02:29:09;12.50;;;6.50;;
5391;SDS011;2719;53.624;9.786;2023-11-21T02:31:37;12.83;;;6.80;;
5391;SDS011;2719;53.624;9.786;2023-11-21T02:34:12;9.87;;;5.80;;
5391;SDS011;2719;53.624;9.786;2023-11-21T02:36:39;9.53;;;4.70;;
5391;SDS011;2719;53.624;9.786;2023-11-21T02:39:07;8.70;;;5.00;;
5391;SDS011;2719;53.624;9.786;2023-11-21T02:41:35;8.70;;;5.10;;
5391;SDS011;2719;53.624;9.786;2023-11-21T02:44:02;8.53;;;4.27;;
5391;SDS011;2719;53.624;9.786;2023-11-21T02:46:31;7.20;;;4.57;;
5391;SDS011;2719;53.624;9.786;2023-11-21T02:48:58;12.57;;;4.40;;
5391;SDS011;2719;53.624;9.786;2023-11-21T02:51:25;7.03;;;3.87;;
5391;SDS011;2719;53.624;9.786;2023-11-21T02:53:52;9.77;;;4.70;;
5391;SDS011;2719;53.624;9.786;2023-11-21T02:56:19;6.97;;;3.97;;
5391;SDS011;2719;53.624;9.786;2023-11-21T02:58:47;8.53;;;4.27;;
5391;SDS011;2719;53.624;9.786;2023-11-21T03:01:14;7.87;;;4.60;;
5391;SDS011;2719;53.624;9.786;2023-11-21T03:03:40;7.70;;;4.10;;
5391;SDS011;2719;53.624;9.786;2023-11-21T03:06:07;10.70;;;4.10;;
5391;SDS011;2719;53.624;9.786;2023-11-21T03:08:34;11.13;;;4.17;;
5391;SDS011;2719;53.624;9.786;2023-11-21T03:11:01;7.10;;;3.40;;
5391;SDS011;2719;53.624;9.786;2023-11-21T03:13:28;8.30;;;4.23;;
5391;SDS011;2719;53.624;9.786;2023-11-21T03:15:56;8.10;;;3.20;;
5391;SDS011;2719;53.624;9.786;2023-11-21T03:18:23;9.03;;;3.23;;
5391;SDS011;2719;53.624;9.786;2023-11-21T03:20:51;16.00;;;3.80;;
5391;SDS011;2719;53.624;9.786;2023-11-21T03:23:19;8.27;;;3.80;;
5391;SDS011;2719;53.624;9.786;2023-11-21T03:25:45;6.43;;;3.70;;
5391;SDS011;2719;53.624;9.786;2023-11-21T03:28:12;10.23;;;3.50;;
5391;SDS011;2719;53.624;9.786;2023-11-21T03:30:39;6.30;;;3.70;;
5391;SDS011;2719;53.624;9.786;2023-11-21T03:33:07;8.67;;;3.97;;
5391;SDS011;2719;53.624;9.786;2023-11-21T03:35:33;6.83;;;3.60;;
5391;SDS011;2719;53.624;9.786;2023-11-21T03:38:00;5.20;;;2.63;;
5391;SDS011;2719;53.624;9.786;2023-11-21T03:40:27;6.00;;;2.47;;
5391;SDS011;2719;53.624;9.786;2023-11-21T03:42:53;7.20;;;4.00;;
5391;SDS011;2719;53.624;9.786;2023-11-21T03:45:20;7.50;;;4.27;;
5391;SDS011;2719;53.624;9.786;2023-11-21T03:47:47;7.33;;;3.67;;
5391;SDS011;2719;53.624;9.786;2023-11-21T03:50:15;5.00;;;3.00;;
5391;SDS011;2719;53.624;9.786;2023-11-21T03:52:41;6.50;;;4.10;;
5391;SDS011;2719;53.624;9.786;2023-11-21T03:55:08;7.43;;;4.27;;
5391;SDS011;2719;53.624;9.786;2023-11-21T03:57:35;9.57;;;4.23;;
5391;SDS011;2719;53.624;9.786;2023-11-21T04:00:02;8.40;;;3.40;;
5391;SDS011;2719;53.624;9.786;2023-11-21T04:02:33;8.30;;;4.30;;
5391;SDS011;2719;53.624;9.786;2023-11-21T04:05:00;7.20;;;4.10;;
5391;SDS011;2719;53.624;9.786;2023-11-21T04:07:28;11.90;;;4.40;;
5391;SDS011;2719;53.624;9.786;2023-11-21T04:09:55;8.37;;;4.40;;
5391;SDS011;2719;53.624;9.786;2023-11-21T04:12:21;6.90;;;3.47;;
5391;SDS011;2719;53.624;9.786;2023-11-21T04:14:48;8.50;;;4.00;;
5391;SDS011;2719;53.624;9.786;2023-11-21T04:17:17;6.50;;;3.67;;
5391;SDS011;2719;53.624;9.786;2023-11-21T04:19:44;6.93;;;4.43;;
5391;SDS011;2719;53.624;9.786;2023-11-21T04:22:11;5.63;;;3.50;;
5391;SDS011;2719;53.624;9.786;2023-11-21T04:24:39;8.37;;;4.90;;
5391;SDS011;2719;53.624;9.786;2023-11-21T04:27:05;8.47;;;4.90;;
5391;SDS011;2719;53.624;9.786;2023-11-21T04:29:32;11.73;;;5.37;;
5391;SDS011;2719;53.624;9.786;2023-11-21T04:32:00;8.90;;;5.50;;
5391;SDS011;2719;53.624;9.786;2023-11-21T04:34:27;8.37;;;4.63;;
5391;SDS011;2719;53.624;9.786;2023-11-21T04:36:55;8.90;;;5.00;;
5391;SDS011;2719;53.624;9.786;2023-11-21T04:39:22;8.77;;;4.77;;
5391;SDS011;2719;53.624;9.786;2023-11-21T04:41:51;7.57;;;4.60;;
5391;SDS011;2719;53.624;9.786;2023-11-21T04:44:17;6.40;;;4.03;;
5391;SDS011;2719;53.624;9.786;2023-11-21T04:46:44;7.03;;;4.00;;
5391;SDS011;2719;53.624;9.786;2023-11-21T04:49:11;8.20;;;4.67;;
5391;SDS011;2719;53.624;9.786;2023-11-21T04:51:37;8.57;;;4.30;;
5391;SDS011;2719;53.624;9.786;2023-11-21T04:54:04;11.47;;;5.10;;
5391;SDS011;2719;53.624;9.786;2023-11-21T04:56:31;7.77;;;4.10;;
5391;SDS011;2719;53.624;9.786;2023-11-21T04:58:59;7.80;;;4.27;;
5391;SDS011;2719;53.624;9.786;2023-11-21T05:01:26;9.20;;;4.50;;
5391;SDS011;2719;53.624;9.786;2023-11-21T05:03:52;9.60;;;4.30;;
5391;SDS011;2719;53.624;9.786;2023-11-21T05:06:19;7.37;;;4.23;;
5391;SDS011;2719;53.624;9.786;2023-11-21T05:08:46;10.03;;;4.50;;
5391;SDS011;2719;53.624;9.786;2023-11-21T05:11:22;9.07;;;4.93;;
5391;SDS011;2719;53.624;9.786;2023-11-21T05:13:49;20.87;;;5.23;;
5391;SDS011;2719;53.624;9.786;2023-11-21T05:16:17;9.80;;;4.67;;
5391;SDS011;2719;53.624;9.786;2023-11-21T05:18:45;7.77;;;4.50;;
5391;SDS011;2719;53.624;9.786;2023-11-21T05:21:11;7.43;;;4.07;;
5391;SDS011;2719;53.624;9.786;2023-11-21T05:23:38;7.57;;;4.17;;
5391;SDS011;2719;53.624;9.786;2023-11-21T05:26:05;7.73;;;4.50;;
5391;SDS011;2719;53.624;9.786;2023-11-21T05:28:32;6.50;;;4.27;;
5391;SDS011;2719;53.624;9.786;2023-11-21T05:30:59;10.10;;;5.17;;
5391;SDS011;2719;53.624;9.786;2023-11-21T05:33:27;10.40;;;4.20;;
5391;SDS011;2719;53.624;9.786;2023-11-21T05:35:54;7.53;;;3.93;;
5391;SDS011;2719;53.624;9.786;2023-11-21T05:38:21;6.83;;;3.97;;
5391;SDS011;2719;53.624;9.786;2023-11-21T05:40:48;8.83;;;3.60;;
5391;SDS011;2719;53.624;9.786;2023-11-21T05:43:14;7.60;;;4.20;;
5391;SDS011;2719;53.624;9.786;2023-11-21T05:45:41;6.83;;;3.77;;
5391;SDS011;2719;53.624;9.786;2023-11-21T05:48:08;10.87;;;3.93;;
5391;SDS011;2719;53.624;9.786;2023-11-21T05:50:36;8.37;;;4.27;;
5391;SDS011;2719;53.624;9.786;2023-11-21T05:53:03;7.13;;;4.20;;
5391;SDS011;2719;53.624;9.786;2023-11-21T05:55:30;9.60;;;4.03;;
5391;SDS011;2719;53.624;9.786;2023-11-21T05:57:57;10.70;;;4.70;;
5391;SDS011;2719;53.624;9.786;2023-11-21T06:00:23;8.43;;;4.07;;
5391;SDS011;2719;53.624;9.786;2023-11-21T06:02:52;7.80;;;3.40;;
5391;SDS011;2719;53.624;9.786;2023-11-21T06:05:19;10.80;;;4.30;;
5391;SDS011;2719;53.624;9.786;2023-11-21T06:07:50;8.87;;;4.20;;
5391;SDS011;2719;53.624;9.786;2023-11-21T06:10:17;7.10;;;3.90;;
5391;SDS011;2719;53.624;9.786;2023-11-21T06:12:45;6.47;;;3.90;;
5391;SDS011;2719;53.624;9.786;2023-11-21T06:15:12;5.97;;;3.77;;
5391;SDS011;2719;53.624;9.786;2023-11-21T06:17:39;8.53;;;3.23;;
5391;SDS011;2719;53.624;9.786;2023-11-21T06:20:07;7.73;;;4.27;;
5391;SDS011;2719;53.624;9.786;2023-11-21T06:22:39;7.20;;;4.23;;
5391;SDS011;2719;53.624;9.786;2023-11-21T06:25:08;9.60;;;3.90;;
5391;SDS011;2719;53.624;9.786;2023-11-21T06:27:37;8.80;;;4.40;;
5391;SDS011;2719;53.624;9.786;2023-11-21T06:30:05;5.27;;;3.30;;
5391;SDS011;2719;53.624;9.786;2023-11-21T06:32:34;7.00;;;3.87;;
5391;SDS011;2719;53.624;9.786;2023-11-21T06:35:01;7.07;;;3.43;;
5391;SDS011;2719;53.624;9.786;2023-11-21T06:37:29;8.20;;;3.90;;
5391;SDS011;2719;53.624;9.786;2023-11-21T06:39:57;6.00;;;3.13;;
5391;SDS011;2719;53.624;9.786;2023-11-21T06:42:25;8.90;;;4.00;;
5391;SDS011;2719;53.624;9.786;2023-11-21T06:44:54;7.90;;;4.37;;
5391;SDS011;2719;53.624;9.786;2023-11-21T06:47:22;8.13;;;3.97;;
5391;SDS011;2719;53.624;9.786;2023-11-21T06:49:50;9.07;;;3.13;;
5391;SDS011;2719;53.624;9.786;2023-11-21T06:52:17;5.10;;;3.33;;
5391;SDS011;2719;53.624;9.786;2023-11-21T06:54:44;8.27;;;3.37;;
5391;SDS011;2719;53.624;9.786;2023-11-21T06:57:12;9.93;;;4.17;;
5391;SDS011;2719;53.624;9.786;2023-11-21T06:59:40;10.03;;;3.40;;
5391;SDS011;2719;53.624;9.786;2023-11-21T07:02:07;7.53;;;3.60;;
5391;SDS011;2719;53.624;9.786;2023-11-21T07:04:34;7.57;;;4.20;;
5391;SDS011;2719;53.624;9.786;2023-11-21T07:07:01;7.20;;;3.80;;
5391;SDS011;2719;53.624;9.786;2023-11-21T07:09:28;8.57;;;4.53;;
5391;SDS011;2719;53.624;9.786;2023-11-21T07:11:56;6.43;;;3.90;;
5391;SDS011;2719;53.624;9.786;2023-11-21T07:14:22;7.43;;;3.93;;
5391;SDS011;2719;53.624;9.786;2023-11-21T07:16:50;15.30;;;4.70;;
5391;SDS011;2719;53.624;9.786;2023-11-21T07:19:18;11.70;;;4.77;;
5391;SDS011;2719;53.624;9.786;2023-11-21T07:21:44;7.90;;;4.70;;
5391;SDS011;2719;53.624;9.786;2023-11-21T07:24:11;6.47;;;3.73;;
5391;SDS011;2719;53.624;9.786;2023-11-21T07:26:38;4.50;;;2.90;;
5391;SDS011;2719;53.624;9.786;2023-11-21T07:29:04;7.23;;;3.80;;
5391;SDS011;2719;53.624;9.786;2023-11-21T07:31:32;8.13;;;3.83;;
5391;SDS011;2719;53.624;9.786;2023-11-21T07:34:00;6.90;;;3.63;;
5391;SDS011;2719;53.624;9.786;2023-11-21T07:36:27;8.73;;;3.63;;
5391;SDS011;2719;53.624;9.786;2023-11-21T07:38:54;8.27;;;4.43;;
5391;SDS011;2719;53.624;9.786;2023-11-21T07:41:20;8.40;;;4.80;;
5391;SDS011;2719;53.624;9.786;2023-11-21T07:43:47;15.00;;;4.40;;
5391;SDS011;2719;53.624;9.786;2023-11-21T07:46:14;14.07;;;4.30;;
5391;SDS011;2719;53.624;9.786;2023-11-21T07:48:41;10.33;;;3.43;;
5391;SDS011;2719;53.624;9.786;2023-11-21T07:51:10;7.70;;;4.20;;
5391;SDS011;2719;53.624;9.786;2023-11-21T07:53:38;8.33;;;4.07;;
5391;SDS011;2719;53.624;9.786;2023-11-21T07:56:05;11.97;;;5.47;;
5391;SDS011;2719;53.624;9.786;2023-11-21T07:58:33;7.43;;;4.10;;
5391;SDS011;2719;53.624;9.786;2023-11-21T08:01:00;11.10;;;4.03;;
5391;SDS011;2719;53.624;9.786;2023-11-21T08:03:27;7.90;;;4.47;;
5391;SDS011;2719;53.624;9.786;2023-11-21T08:05:55;10.20;;;4.80;;
5391;SDS011;2719;53.624;9.786;2023-11-21T08:08:23;8.03;;;4.80;;
5391;SDS011;2719;53.624;9.786;2023-11-21T08:10:50;9.57;;;4.43;;
5391;SDS011;2719;53.624;9.786;2023-11-21T08:13:21;10.13;;;4.73;;
5391;SDS011;2719;53.624;9.786;2023-11-21T08:15:48;10.67;;;4.97;;
5391;SDS011;2719;53.624;9.786;2023-11-21T08:18:14;12.90;;;4.43;;
5391;SDS011;2719;53.624;9.786;2023-11-21T08:20:42;8.67;;;4.60;;
5391;SDS011;2719;53.624;9.786;2023-11-21T08:23:13;8.37;;;4.30;;
5391;SDS011;2719;53.624;9.786;2023-11-21T08:25:42;16.20;;;5.10;;
5391;SDS011;2719;53.624;9.786;2023-11-21T08:28:09;8.03;;;4.20;;
5391;SDS011;2719;53.624;9.786;2023-11-21T08:30:36;12.27;;;4.80;;
5391;SDS011;2719;53.624;9.786;2023-11-21T08:33:02;11.17;;;4.47;;
5391;SDS011;2719;53.624;9.786;2023-11-21T08:35:29;6.67;;;3.43;;
5391;SDS011;2719;53.624;9.786;2023-11-21T08:37:57;8.17;;;4.30;;
5391;SDS011;2719;53.624;9.786;2023-11-21T08:40:23;7.97;;;3.87;;
5391;SDS011;2719;53.624;9.786;2023-11-21T08:42:51;11.00;;;3.53;;
5391;SDS011;2719;53.624;9.786;2023-11-21T08:45:18;4.97;;;2.57;;
5391;SDS011;2719;53.624;9.786;2023-11-21T08:47:46;6.20;;;3.00;;
5391;SDS011;2719;53.624;9.786;2023-11-21T08:50:12;8.27;;;2.90;;
5391;SDS011;2719;53.624;9.786;2023-11-21T08:52:40;5.37;;;2.70;;
5391;SDS011;2719;53.624;9.786;2023-11-21T08:55:07;6.37;;;3.10;;
5391;SDS011;2719;53.624;9.786;2023-11-21T08:57:37;8.20;;;2.83;;
5391;SDS011;2719;53.624;9.786;2023-11-21T09:00:07;6.80;;;2.77;;
5391;SDS011;2719;53.624;9.786;2023-11-21T09:02:36;5.03;;;2.23;;
5391;SDS011;2719;53.624;9.786;2023-11-21T09:25:47;5.30;;;1.83;;
5391;SDS011;2719;53.624;9.786;2023-11-21T09:28:15;4.00;;;1.80;;
5391;SDS011;2719;53.624;9.786;2023-11-21T09:30:42;4.50;;;1.77;;
5391;SDS011;2719;53.624;9.786;2023-11-21T09:33:09;5.27;;;2.10;;
5391;SDS011;2719;53.624;9.786;2023-11-21T09:35:36;4.10;;;2.10;;
5391;SDS011;2719;53.624;9.786;2023-11-21T09:38:03;4.03;;;1.50;;
5391;SDS011;2719;53.624;9.786;2023-11-21T09:40:35;4.40;;;1.63;;
5391;SDS011;2719;53.624;9.786;2023-11-21T09:43:05;2.67;;;1.37;;
5391;SDS011;2719;53.624;9.786;2023-11-21T09:45:34;7.00;;;2.17;;
5391;SDS011;2719;53.624;9.786;2023-11-21T09:48:01;11.50;;;1.80;;
5391;SDS011;2719;53.624;9.786;2023-11-21T09:50:28;4.37;;;1.57;;
5391;SDS011;2719;53.624;9.786;2023-11-21T09:52:59;4.40;;;2.10;;
5391;SDS011;2719;53.624;9.786;2023-11-21T09:55:39;7.17;;;2.10;;
5391;SDS011;2719;53.624;9.786;2023-11-21T09:58:10;4.53;;;1.60;;
5391;SDS011;2719;53.624;9.786;2023-11-21T10:00:39;7.03;;;2.07;;
5391;SDS011;2719;53.624;9.786;2023-11-21T10:03:06;4.10;;;1.20;;
5391;SDS011;2719;53.624;9.786;2023-11-21T10:05:34;5.13;;;1.67;;
5391;SDS011;2719;53.624;9.786;2023-11-21T10:08:00;3.13;;;1.60;;
5391;SDS011;2719;53.624;9.786;2023-11-21T10:10:28;5.20;;;1.27;;
5391;SDS011;2719;53.624;9.786;2023-11-21T10:12:59;4.03;;;1.60;;
5391;SDS011;2719;53.624;9.786;2023-11-21T10:15:30;2.70;;;1.53;;
5391;SDS011;2719;53.624;9.786;2023-11-21T10:17:59;3.40;;;1.77;;
5391;SDS011;2719;53.624;9.786;2023-11-21T10:20:28;5.20;;;1.17;;
5391;SDS011;2719;53.624;9.786;2023-11-21T10:22:56;4.87;;;1.07;;
5391;SDS011;2719;53.624;9.786;2023-11-21T10:25:23;3.20;;;1.37;;
5391;SDS011;2719;53.624;9.786;2023-11-21T10:27:50;1.83;;;0.70;;
5391;SDS011;2719;53.624;9.786;2023-11-21T10:30:27;2.10;;;0.90;;
5391;SDS011;2719;53.624;9.786;2023-11-21T10:32:59;1.90;;;0.77;;
5391;SDS011;2719;53.624;9.786;2023-11-21T10:35:38;1.83;;;0.70;;
5391;SDS011;2719;53.624;9.786;2023-11-21T10:38:06;4.27;;;0.90;;
5391;SDS011;2719;53.624;9.786;2023-11-21T10:40:35;1.30;;;0.60;;
5391;SDS011;2719;53.624;9.786;2023-11-21T10:43:06;3.60;;;0.70;;
5391;SDS011;2719;53.624;9.786;2023-11-21T10:45:34;3.77;;;0.80;;
5391;SDS011;2719;53.624;9.786;2023-11-21T10:48:04;3.43;;;1.00;;
5391;SDS011;2719;53.624;9.786;2023-11-21T10:50:32;3.10;;;0.80;;
5391;SDS011;2719;53.624;9.786;2023-11-21T10:53:00;1.77;;;0.70;;
5391;SDS011;2719;53.624;9.786;2023-11-21T10:55:29;2.47;;;0.70;;
5391;SDS011;2719;53.624;9.786;2023-11-21T10:57:56;1.20;;;0.60;;
5391;SDS011;2719;53.624;9.786;2023-11-21T11:00:25;1.83;;;0.70;;
5391;SDS011;2719;53.624;9.786;2023-11-21T11:02:53;2.40;;;0.93;;
5391;SDS011;2719;53.624;9.786;2023-11-21T11:05:22;6.43;;;1.43;;
5391;SDS011;2719;53.624;9.786;2023-11-21T11:07:52;1.67;;;0.70;;
5391;SDS011;2719;53.624;9.786;2023-11-21T11:10:25;1.50;;;0.80;;
5391;SDS011;2719;53.624;9.786;2023-11-21T11:12:52;2.77;;;0.70;;
5391;SDS011;2719;53.624;9.786;2023-11-21T11:15:20;2.03;;;0.80;;
5391;SDS011;2719;53.624;9.786;2023-11-21T11:17:47;12.37;;;1.03;;
5391;SDS011;2719;53.624;9.786;2023-11-21T11:20:15;2.40;;;0.80;;
5391;SDS011;2719;53.624;9.786;2023-11-21T11:22:48;2.33;;;0.90;;
5391;SDS011;2719;53.624;9.786;2023-11-21T11:25:25;2.77;;;0.83;;
5391;SDS011;2719;53.624;9.786;2023-11-21T11:28:01;2.93;;;0.80;;
5391;SDS011;2719;53.624;9.786;2023-11-21T11:30:39;4.40;;;1.00;;
5391;SDS011;2719;53.624;9.786;2023-11-21T11:33:14;3.33;;;1.10;;
5391;SDS011;2719;53.624;9.786;2023-11-21T11:35:52;2.50;;;0.90;;
5391;SDS011;2719;53.624;9.786;2023-11-21T11:38:24;4.20;;;1.13;;
5391;SDS011;2719;53.624;9.786;2023-11-21T11:40:57;3.80;;;1.13;;
5391;SDS011;2719;53.624;9.786;2023-11-21T11:43:27;3.90;;;1.27;;
5391;SDS011;2719;53.624;9.786;2023-11-21T11:45:55;3.43;;;1.43;;
5391;SDS011;2719;53.624;9.786;2023-11-21T11:48:24;2.40;;;0.93;;
5391;SDS011;2719;53.624;9.786;2023-11-21T11:51:03;1.83;;;0.77;;
5391;SDS011;2719;53.624;9.786;2023-11-21T11:53:36;2.43;;;0.73;;
5391;SDS011;2719;53.624;9.786;2023-11-21T11:56:19;2.60;;;0.70;;
5391;SDS011;2719;53.624;9.786;2023-11-21T11:58:53;2.80;;;1.00;;
5391;SDS011;2719;53.624;9.786;2023-11-21T12:01:20;3.20;;;1.10;;
5391;SDS011;2719;53.624;9.786;2023-11-21T12:06:56;3.23;;;1.00;;
5391;SDS011;2719;53.624;9.786;2023-11-21T12:09:26;1.80;;;0.77;;
5391;SDS011;2719;53.624;9.786;2023-11-21T12:11:55;2.33;;;0.80;;
5391;SDS011;2719;53.624;9.786;2023-11-21T12:14:22;2.87;;;1.10;;
5391;SDS011;2719;53.624;9.786;2023-11-21T12:16:50;3.53;;;1.00;;
5391;SDS011;2719;53.624;9.786;2023-11-21T12:19:17;2.33;;;0.83;;
5391;SDS011;2719;53.624;9.786;2023-11-21T12:21:45;3.47;;;1.00;;
5391;SDS011;2719;53.624;9.786;2023-11-21T12:24:13;5.20;;;1.10;;
5391;SDS011;2719;53.624;9.786;2023-11-21T12:26:42;1.80;;;0.80;;
5391;SDS011;2719;53.624;9.786;2023-11-21T12:29:10;2.47;;;0.70;;
5391;SDS011;2719;53.624;9.786;2023-11-21T12:31:37;2.67;;;1.00;;
5391;SDS011;2719;53.624;9.786;2023-11-21T12:34:03;5.00;;;1.40;;
5391;SDS011;2719;53.624;9.786;2023-11-21T12:36:31;2.60;;;0.73;;
5391;SDS011;2719;53.624;9.786;2023-11-21T12:38:59;3.07;;;0.90;;
5391;SDS011;2719;53.624;9.786;2023-11-21T12:41:27;9.93;;;1.00;;
5391;SDS011;2719;53.624;9.786;2023-11-21T12:43:56;1.70;;;0.80;;
5391;SDS011;2719;53.624;9.786;2023-11-21T12:46:22;3.60;;;1.00;;
5391;SDS011;2719;53.624;9.786;2023-11-21T12:48:51;3.17;;;1.10;;
5391;SDS011;2719;53.624;9.786;2023-11-21T12:51:17;3.13;;;1.20;;
5391;SDS011;2719;53.624;9.786;2023-11-21T12:53:44;3.27;;;1.10;;
5391;SDS011;2719;53.624;9.786;2023-11-21T12:56:12;5.37;;;1.00;;
5391;SDS011;2719;53.624;9.786;2023-11-21T12:58:43;1.83;;;0.93;;
5391;SDS011;2719;53.624;9.786;2023-11-21T13:01:13;2.10;;;0.80;;
5391;SDS011;2719;53.624;9.786;2023-11-21T13:03:45;1.33;;;0.60;;
5391;SDS011;2719;53.624;9.786;2023-11-21T13:06:13;2.43;;;0.70;;
5391;SDS011;2719;53.624;9.786;2023-11-21T13:08:41;2.97;;;0.80;;
5391;SDS011;2719;53.624;9.786;2023-11-21T13:11:08;2.63;;;0.73;;
5391;SDS011;2719;53.624;9.786;2023-11-21T13:13:36;2.27;;;0.83;;
5391;SDS011;2719;53.624;9.786;2023-11-21T13:16:06;3.87;;;0.73;;
5391;SDS011;2719;53.624;9.786;2023-11-21T13:18:36;2.67;;;0.80;;
5391;SDS011;2719;53.624;9.786;2023-11-21T13:21:05;2.03;;;0.80;;
5391;SDS011;2719;53.624;9.786;2023-11-21T13:23:36;5.70;;;1.20;;
5391;SDS011;2719;53.624;9.786;2023-11-21T13:26:03;3.30;;;1.03;;
5391;SDS011;2719;53.624;9.786;2023-11-21T13:28:30;1.50;;;0.70;;
5391;SDS011;2719;53.624;9.786;2023-11-21T13:30:58;1.17;;;0.60;;
5391;SDS011;2719;53.624;9.786;2023-11-21T13:33:27;3.73;;;0.80;;
5391;SDS011;2719;53.624;9.786;2023-11-21T13:35:56;1.70;;;0.70;;
5391;SDS011;2719;53.624;9.786;2023-11-21T13:38:24;1.70;;;0.70;;
5391;SDS011;2719;53.624;9.786;2023-11-21T13:40:56;3.87;;;0.90;;
5391;SDS011;2719;53.624;9.786;2023-11-21T13:43:24;6.93;;;0.70;;
5391;SDS011;2719;53.624;9.786;2023-11-21T13:45:53;1.80;;;0.80;;
5391;SDS011;2719;53.624;9.786;2023-11-21T13:48:25;4.50;;;1.10;;
5391;SDS011;2719;53.624;9.786;2023-11-21T13:51:00;3.73;;;0.90;;
5391;SDS011;2719;53.624;9.786;2023-11-21T13:53:35;2.30;;;0.87;;
5391;SDS011;2719;53.624;9.786;2023-11-21T13:56:04;3.43;;;1.23;;
5391;SDS011;2719;53.624;9.786;2023-11-21T13:58:31;2.57;;;1.00;;
5391;SDS011;2719;53.624;9.786;2023-11-21T14:01:06;1.97;;;1.03;;
5391;SDS011;2719;53.624;9.786;2023-11-21T14:03:41;2.63;;;0.87;;
5391;SDS011;2719;53.624;9.786;2023-11-21T14:06:18;1.30;;;0.70;;
5391;SDS011;2719;53.624;9.786;2023-11-21T14:08:50;2.13;;;0.87;;
5391;SDS011;2719;53.624;9.786;2023-11-21T14:11:18;2.27;;;1.07;;
5391;SDS011;2719;53.624;9.786;2023-11-21T14:13:47;3.40;;;1.03;;
5391;SDS011;2719;53.624;9.786;2023-11-21T14:16:13;2.30;;;1.00;;
5391;SDS011;2719;53.624;9.786;2023-11-21T14:18:41;2.93;;;1.30;;
5391;SDS011;2719;53.624;9.786;2023-11-21T14:21:19;10.50;;;0.97;;
5391;SDS011;2719;53.624;9.786;2023-11-21T14:23:46;2.60;;;0.90;;
5391;SDS011;2719;53.624;9.786;2023-11-21T14:26:13;4.70;;;1.20;;
5391;SDS011;2719;53.624;9.786;2023-11-21T14:28:42;2.90;;;1.23;;
5391;SDS011;2719;53.624;9.786;2023-11-21T14:31:09;6.10;;;1.20;;
5391;SDS011;2719;53.624;9.786;2023-11-21T14:33:38;2.80;;;1.07;;
5391;SDS011;2719;53.624;9.786;2023-11-21T14:36:05;6.13;;;1.20;;
5391;SDS011;2719;53.624;9.786;2023-11-21T14:38:35;3.77;;;1.07;;
5391;SDS011;2719;53.624;9.786;2023-11-21T14:41:02;3.57;;;0.93;;
5391;SDS011;2719;53.624;9.786;2023-11-21T14:43:29;6.93;;;1.17;;
5391;SDS011;2719;53.624;9.786;2023-11-21T14:45:59;3.20;;;0.70;;
5391;SDS011;2719;53.624;9.786;2023-11-21T14:48:27;1.80;;;0.70;;
5391;SDS011;2719;53.624;9.786;2023-11-21T14:51:07;3.93;;;0.80;;
5391;SDS011;2719;53.624;9.786;2023-11-21T14:53:57;3.00;;;1.10;;
5391;SDS011;2719;53.624;9.786;2023-11-21T14:56:30;2.03;;;1.00;;
5391;SDS011;2719;53.624;9.786;2023-11-21T14:58:59;5.47;;;0.97;;
5391;SDS011;2719;53.624;9.786;2023-11-21T15:01:30;4.53;;;0.70;;
5391;SDS011;2719;53.624;9.786;2023-11-21T15:04:11;2.70;;;0.90;;
5391;SDS011;2719;53.624;9.786;2023-11-21T15:06:46;2.40;;;1.00;;
5391;SDS011;2719;53.624;9.786;2023-11-21T15:09:14;2.93;;;0.80;;
5391;SDS011;2719;53.624;9.786;2023-11-21T15:12:01;3.20;;;0.90;;
5391;SDS011;2719;53.624;9.786;2023-11-21T15:14:38;2.53;;;1.00;;
5391;SDS011;2719;53.624;9.786;2023-11-21T15:17:05;4.17;;;0.90;;
5391;SDS011;2719;53.624;9.786;2023-11-21T15:19:32;7.87;;;0.90;;
5391;SDS011;2719;53.624;9.786;2023-11-21T15:22:00;2.40;;;1.10;;
5391;SDS011;2719;53.624;9.786;2023-11-21T15:24:29;4.60;;;1.30;;
5391;SDS011;2719;53.624;9.786;2023-11-21T15:26:55;2.30;;;0.80;;
5391;SDS011;2719;53.624;9.786;2023-11-21T15:29:22;2.47;;;1.00;;
5391;SDS011;2719;53.624;9.786;2023-11-21T15:31:50;5.00;;;1.47;;
5391;SDS011;2719;53.624;9.786;2023-11-21T15:34:21;3.10;;;1.00;;
5391;SDS011;2719;53.624;9.786;2023-11-21T15:36:48;3.30;;;0.93;;
5391;SDS011;2719;53.624;9.786;2023-11-21T15:39:18;5.03;;;1.53;;
5391;SDS011;2719;53.624;9.786;2023-11-21T15:41:47;2.60;;;0.93;;
5391;SDS011;2719;53.624;9.786;2023-11-21T15:44:14;3.47;;;0.90;;